BFS weather

Belfast International Airport
Belfast, Northern Ireland, United Kingdom

Public forecast

Using degrees Celsius for public forecast. Weather courtesy of forecast.io.

Current aviation weather report (METAR) for Belfast International Airport

Retrieved 2019/10/19 00:20 UTC (26 minutes ago):

EGAA 190020Z 00000KT CAVOK 06/05 Q0996

Aviation forecast (TAF) for Belfast International Airport

Retrieved 2019-10-19 00:00 UTC (46 minutes ago):

TAF EGAA 182257Z 1900/1924 34008KT 9999 FEW020 SCT035 PROB40 TEMPO 1900/1909 6000 SHRA SCT008 BKN012 TEMPO 1909/1912 7000 SHRA